SWA2146 KBHM-KDAL
Flight info
| Callsign | SWA2146 |
|---|---|
| Flight time | 1h 36m |
| Altitude | 30000 |
| Route | JOEYE HRISN MLU PUDJE REDDN4 |
| Aircraft | B738/M-SADE2E3GIJ4RWZ/LB1D1 |
Departure
| Time | 2026-04-19 23:15 |
|---|---|
| Airport | Birmingham-Shuttlesworth International Airport (KBHM) |
Arrival
| Time | 2026-04-20 00:51 |
|---|---|
| Airport | Dallas Love Field (KDAL) |
| Time | Latitude | Longitude | Altitude | Speed | Heading |
|---|---|---|---|---|---|
| 2026-04-19 22:46 | 33.56210 | -86.75328 | 607 ft | 0 kts | 141° |
| 2026-04-19 23:07 | 33.56211 | -86.75329 | 607 ft | 2 kts | 141° |
| 2026-04-19 23:07 | 33.56231 | -86.75348 | 626 ft | 4 kts | 141° |
| 2026-04-19 23:08 | 33.56253 | -86.75368 | 625 ft | 4 kts | 153° |
| 2026-04-19 23:08 | 33.56277 | -86.75377 | 623 ft | 4 kts | 186° |
| 2026-04-19 23:08 | 33.56298 | -86.75366 | 611 ft | 2 kts | 235° |
| 2026-04-19 23:08 | 33.56301 | -86.75360 | 616 ft | 0 kts | 236° |
| 2026-04-19 23:10 | 33.56294 | -86.75421 | 617 ft | 14 kts | 298° |
| 2026-04-19 23:11 | 33.56300 | -86.75529 | 611 ft | 15 kts | 236° |
| 2026-04-19 23:11 | 33.56236 | -86.75639 | 613 ft | 16 kts | 235° |
| 2026-04-19 23:11 | 33.56173 | -86.75749 | 619 ft | 16 kts | 235° |
| 2026-04-19 23:11 | 33.56105 | -86.75866 | 614 ft | 18 kts | 235° |
| 2026-04-19 23:12 | 33.56029 | -86.75996 | 608 ft | 20 kts | 235° |
| 2026-04-19 23:12 | 33.55947 | -86.76140 | 609 ft | 22 kts | 237° |
| 2026-04-19 23:12 | 33.55858 | -86.76296 | 618 ft | 23 kts | 236° |
| 2026-04-19 23:12 | 33.55763 | -86.76461 | 611 ft | 25 kts | 235° |
| 2026-04-19 23:13 | 33.55663 | -86.76634 | 610 ft | 26 kts | 235° |
| 2026-04-19 23:13 | 33.55562 | -86.76806 | 613 ft | 24 kts | 235° |
| 2026-04-19 23:13 | 33.55469 | -86.76967 | 616 ft | 23 kts | 235° |
| 2026-04-19 23:13 | 33.55476 | -86.77115 | 615 ft | 20 kts | 347° |
| 2026-04-19 23:14 | 33.55518 | -86.77087 | 617 ft | 0 kts | 57° |
| 2026-04-19 23:14 | 33.55531 | -86.77065 | 613 ft | 19 kts | 55° |
| 2026-04-19 23:14 | 33.55754 | -86.76679 | 614 ft | 92 kts | 55° |
| 2026-04-19 23:15 | 33.56240 | -86.75837 | 621 ft | 152 kts | 55° |
| 2026-04-19 23:15 | 33.56911 | -86.74709 | 1053 ft | 167 kts | 43° |
| 2026-04-19 23:15 | 33.57882 | -86.73994 | 1841 ft | 167 kts | 5° |
| 2026-04-19 23:15 | 33.59003 | -86.74249 | 2643 ft | 164 kts | 343° |
| 2026-04-19 23:16 | 33.60117 | -86.74663 | 3180 ft | 174 kts | 344° |
| 2026-04-19 23:16 | 33.61297 | -86.75283 | 3397 ft | 200 kts | 321° |
| 2026-04-19 23:16 | 33.61960 | -86.76827 | 3556 ft | 228 kts | 278° |
| 2026-04-19 23:16 | 33.61659 | -86.78796 | 3724 ft | 254 kts | 254° |
| 2026-04-19 23:17 | 33.61025 | -86.80813 | 4178 ft | 266 kts | 252° |
| 2026-04-19 23:17 | 33.60386 | -86.82911 | 4907 ft | 269 kts | 255° |
| 2026-04-19 23:17 | 33.59832 | -86.85058 | 5635 ft | 270 kts | 258° |
| 2026-04-19 23:17 | 33.59320 | -86.87241 | 6346 ft | 274 kts | 259° |
| 2026-04-19 23:18 | 33.58823 | -86.89462 | 7049 ft | 277 kts | 261° |
| 2026-04-19 23:18 | 33.58336 | -86.91695 | 7828 ft | 276 kts | 261° |
| 2026-04-19 23:18 | 33.57857 | -86.93921 | 8657 ft | 275 kts | 261° |
| 2026-04-19 23:18 | 33.57385 | -86.96140 | 9467 ft | 275 kts | 261° |
| 2026-04-19 23:19 | 33.56913 | -86.98368 | 10284 ft | 276 kts | 260° |
| 2026-04-19 23:19 | 33.56430 | -87.00675 | 10566 ft | 298 kts | 260° |
| 2026-04-19 23:19 | 33.55907 | -87.03185 | 10736 ft | 321 kts | 259° |
| 2026-04-19 23:19 | 33.55344 | -87.05869 | 10896 ft | 343 kts | 259° |
| 2026-04-19 23:20 | 33.54745 | -87.08716 | 11031 ft | 362 kts | 259° |
| 2026-04-19 23:20 | 33.54112 | -87.11709 | 11251 ft | 377 kts | 259° |
| 2026-04-19 23:20 | 33.53461 | -87.14775 | 11784 ft | 381 kts | 259° |
| 2026-04-19 23:20 | 33.52807 | -87.17856 | 12446 ft | 382 kts | 259° |
| 2026-04-19 23:21 | 33.52153 | -87.20949 | 13083 ft | 384 kts | 259° |
| 2026-04-19 23:21 | 33.51495 | -87.24063 | 13699 ft | 387 kts | 259° |
| 2026-04-19 23:21 | 33.51055 | -87.26139 | 14114 ft | 389 kts | 259° |
| 2026-04-19 23:21 | 33.50386 | -87.29291 | 14703 ft | 392 kts | 259° |
| 2026-04-19 23:22 | 33.49715 | -87.32459 | 15355 ft | 392 kts | 259° |
| 2026-04-19 23:22 | 33.49232 | -87.35668 | 15969 ft | 391 kts | 269° |
| 2026-04-19 23:22 | 33.49435 | -87.38901 | 16611 ft | 388 kts | 281° |
| 2026-04-19 23:22 | 33.49915 | -87.42077 | 17356 ft | 387 kts | 281° |
| 2026-04-19 23:23 | 33.50141 | -87.45313 | 17815 ft | 396 kts | 269° |
| 2026-04-19 23:23 | 33.49762 | -87.48596 | 18453 ft | 399 kts | 263° |
| 2026-04-19 23:23 | 33.49262 | -87.51866 | 19019 ft | 399 kts | 263° |
| 2026-04-19 23:23 | 33.48938 | -87.55166 | 19507 ft | 399 kts | 269° |
| 2026-04-19 23:24 | 33.48889 | -87.58487 | 20035 ft | 399 kts | 272° |
| 2026-04-19 23:24 | 33.48956 | -87.61812 | 20568 ft | 399 kts | 274° |
| 2026-04-19 23:24 | 33.49041 | -87.65137 | 21103 ft | 400 kts | 273° |
| 2026-04-19 23:24 | 33.49103 | -87.68477 | 21578 ft | 402 kts | 272° |
| 2026-04-19 23:25 | 33.49135 | -87.71828 | 22040 ft | 403 kts | 272° |
| 2026-04-19 23:25 | 33.49142 | -87.75197 | 22492 ft | 405 kts | 272° |
| 2026-04-19 23:25 | 33.49132 | -87.78570 | 22930 ft | 406 kts | 271° |
| 2026-04-19 23:25 | 33.49114 | -87.81962 | 23261 ft | 408 kts | 271° |
| 2026-04-19 23:26 | 33.49092 | -87.85376 | 23228 ft | 410 kts | 271° |
| 2026-04-19 23:26 | 33.49068 | -87.88775 | 23239 ft | 407 kts | 271° |
| 2026-04-19 23:26 | 33.49043 | -87.92162 | 23250 ft | 407 kts | 271° |
| 2026-04-19 23:26 | 33.49018 | -87.95561 | 23255 ft | 408 kts | 271° |
| 2026-04-19 23:27 | 33.48993 | -87.98962 | 23252 ft | 409 kts | 271° |
| 2026-04-19 23:27 | 33.48968 | -88.02324 | 23256 ft | 409 kts | 271° |
| 2026-04-19 23:27 | 33.48942 | -88.05732 | 23255 ft | 410 kts | 271° |
| 2026-04-19 23:27 | 33.48914 | -88.09146 | 23263 ft | 410 kts | 271° |
| 2026-04-19 23:28 | 33.48886 | -88.12560 | 23256 ft | 410 kts | 271° |
| 2026-04-19 23:28 | 33.48857 | -88.15968 | 23254 ft | 409 kts | 271° |
| 2026-04-19 23:28 | 33.48827 | -88.19372 | 23254 ft | 408 kts | 271° |
| 2026-04-19 23:28 | 33.48796 | -88.22772 | 23256 ft | 408 kts | 271° |
| 2026-04-19 23:29 | 33.48764 | -88.26162 | 23257 ft | 407 kts | 271° |
| 2026-04-19 23:29 | 33.48732 | -88.29556 | 23252 ft | 407 kts | 271° |
| 2026-04-19 23:29 | 33.48698 | -88.32944 | 23255 ft | 407 kts | 271° |
| 2026-04-19 23:29 | 33.48664 | -88.36330 | 23253 ft | 406 kts | 271° |
| 2026-04-19 23:30 | 33.48629 | -88.39716 | 23252 ft | 406 kts | 271° |
| 2026-04-19 23:30 | 33.48593 | -88.43098 | 23290 ft | 406 kts | 271° |
| 2026-04-19 23:30 | 33.48556 | -88.46478 | 23478 ft | 405 kts | 271° |
| 2026-04-19 23:30 | 33.48491 | -88.49861 | 23778 ft | 408 kts | 269° |
| 2026-04-19 23:31 | 33.48243 | -88.53267 | 24068 ft | 413 kts | 265° |
| 2026-04-19 23:31 | 33.47681 | -88.56653 | 24409 ft | 416 kts | 259° |
| 2026-04-19 23:31 | 33.46830 | -88.59978 | 24798 ft | 419 kts | 255° |
| 2026-04-19 23:31 | 33.45847 | -88.63265 | 25122 ft | 420 kts | 254° |
| 2026-04-19 23:32 | 33.44839 | -88.66556 | 25424 ft | 422 kts | 255° |
| 2026-04-19 23:32 | 33.43855 | -88.69870 | 25711 ft | 423 kts | 255° |
| 2026-04-19 23:32 | 33.42909 | -88.73195 | 26065 ft | 421 kts | 256° |
| 2026-04-19 23:32 | 33.41999 | -88.76517 | 26506 ft | 419 kts | 256° |
| 2026-04-19 23:33 | 33.41117 | -88.79824 | 26994 ft | 415 kts | 256° |
| 2026-04-19 23:33 | 33.40254 | -88.83105 | 27507 ft | 411 kts | 257° |
| 2026-04-19 23:33 | 33.39405 | -88.86357 | 28012 ft | 408 kts | 257° |
| 2026-04-19 23:33 | 33.38563 | -88.89591 | 28490 ft | 406 kts | 257° |
| 2026-04-19 23:34 | 33.37725 | -88.92806 | 28973 ft | 404 kts | 257° |
| 2026-04-19 23:34 | 33.36889 | -88.96006 | 29470 ft | 401 kts | 257° |
| 2026-04-19 23:34 | 33.36057 | -88.99183 | 29946 ft | 399 kts | 257° |
| 2026-04-19 23:34 | 33.35229 | -89.02343 | 30273 ft | 400 kts | 257° |
| 2026-04-19 23:35 | 33.33556 | -89.08717 | 30280 ft | 401 kts | 257° |
| 2026-04-19 23:35 | 33.31889 | -89.15037 | 30285 ft | 397 kts | 257° |
| 2026-04-19 23:36 | 33.30228 | -89.21322 | 30291 ft | 396 kts | 257° |
| 2026-04-19 23:36 | 33.28566 | -89.27600 | 30289 ft | 396 kts | 257° |
| 2026-04-19 23:37 | 33.26899 | -89.33879 | 30279 ft | 396 kts | 257° |
| 2026-04-19 23:37 | 33.25239 | -89.40120 | 30245 ft | 397 kts | 257° |
| 2026-04-19 23:38 | 33.23561 | -89.46415 | 30226 ft | 398 kts | 257° |
| 2026-04-19 23:38 | 33.21878 | -89.52712 | 30228 ft | 398 kts | 257° |
| 2026-04-19 23:39 | 33.20190 | -89.59013 | 30233 ft | 399 kts | 257° |
| 2026-04-19 23:39 | 33.18497 | -89.65317 | 30231 ft | 399 kts | 257° |
| 2026-04-19 23:40 | 33.16801 | -89.71619 | 30256 ft | 399 kts | 257° |
| 2026-04-19 23:40 | 33.15103 | -89.77916 | 30232 ft | 398 kts | 257° |
| 2026-04-19 23:41 | 33.13410 | -89.84175 | 30254 ft | 396 kts | 257° |
| 2026-04-19 23:41 | 33.11720 | -89.90413 | 30252 ft | 395 kts | 257° |
| 2026-04-19 23:42 | 33.10029 | -89.96644 | 30258 ft | 395 kts | 257° |
| 2026-04-19 23:42 | 33.08335 | -90.02869 | 30279 ft | 395 kts | 257° |
| 2026-04-19 23:43 | 33.06638 | -90.09092 | 30284 ft | 395 kts | 257° |
| 2026-04-19 23:43 | 33.04950 | -90.15270 | 30279 ft | 395 kts | 257° |
| 2026-04-19 23:44 | 33.03234 | -90.21533 | 30291 ft | 395 kts | 257° |
| 2026-04-19 23:44 | 33.01538 | -90.27709 | 30298 ft | 395 kts | 257° |
| 2026-04-19 23:45 | 32.99826 | -90.33934 | 30297 ft | 395 kts | 257° |
| 2026-04-19 23:45 | 32.98111 | -90.40152 | 30284 ft | 395 kts | 257° |
| 2026-04-19 23:46 | 32.96395 | -90.46360 | 30303 ft | 395 kts | 257° |
| 2026-04-19 23:46 | 32.94676 | -90.52569 | 30304 ft | 395 kts | 257° |
| 2026-04-19 23:47 | 32.92955 | -90.58773 | 30297 ft | 395 kts | 257° |
| 2026-04-19 23:47 | 32.91231 | -90.64972 | 30301 ft | 395 kts | 257° |
| 2026-04-19 23:48 | 32.89502 | -90.71175 | 30303 ft | 395 kts | 257° |
| 2026-04-19 23:48 | 32.87773 | -90.77364 | 30290 ft | 393 kts | 257° |
| 2026-04-19 23:49 | 32.86045 | -90.83532 | 30307 ft | 392 kts | 257° |
| 2026-04-19 23:49 | 32.84319 | -90.89685 | 30308 ft | 392 kts | 257° |
| 2026-04-19 23:50 | 32.82590 | -90.95838 | 30231 ft | 392 kts | 257° |
| 2026-04-19 23:50 | 32.80858 | -91.01988 | 30191 ft | 392 kts | 257° |
| 2026-04-19 23:51 | 32.79123 | -91.08134 | 30148 ft | 392 kts | 257° |
| 2026-04-19 23:51 | 32.77384 | -91.14279 | 30119 ft | 392 kts | 257° |
| 2026-04-19 23:52 | 32.75643 | -91.20420 | 30103 ft | 392 kts | 257° |
| 2026-04-19 23:52 | 32.73896 | -91.26568 | 30101 ft | 393 kts | 257° |
| 2026-04-19 23:53 | 32.72148 | -91.32708 | 30108 ft | 393 kts | 257° |
| 2026-04-19 23:53 | 32.70395 | -91.38852 | 30149 ft | 393 kts | 256° |
| 2026-04-19 23:54 | 32.68639 | -91.44994 | 30190 ft | 393 kts | 256° |
| 2026-04-19 23:54 | 32.66880 | -91.51133 | 30230 ft | 393 kts | 256° |
| 2026-04-19 23:55 | 32.65117 | -91.57273 | 30269 ft | 393 kts | 256° |
| 2026-04-19 23:55 | 32.63351 | -91.63409 | 30313 ft | 393 kts | 256° |
| 2026-04-19 23:56 | 32.61581 | -91.69550 | 30310 ft | 393 kts | 256° |
| 2026-04-19 23:56 | 32.59807 | -91.75693 | 30309 ft | 393 kts | 256° |
| 2026-04-19 23:57 | 32.58030 | -91.81832 | 30314 ft | 394 kts | 256° |
| 2026-04-19 23:57 | 32.56245 | -91.87983 | 30312 ft | 395 kts | 256° |
| 2026-04-19 23:58 | 32.54456 | -91.94140 | 30306 ft | 395 kts | 256° |
| 2026-04-19 23:58 | 32.52673 | -92.00266 | 30315 ft | 396 kts | 257° |
| 2026-04-19 23:59 | 32.51327 | -92.06586 | 30301 ft | 391 kts | 266° |
| 2026-04-19 23:59 | 32.51399 | -92.12930 | 30309 ft | 388 kts | 275° |
| 2026-04-20 00:00 | 32.51540 | -92.19322 | 30321 ft | 389 kts | 270° |
| 2026-04-20 00:00 | 32.51159 | -92.25730 | 30322 ft | 390 kts | 268° |
| 2026-04-20 00:01 | 32.50810 | -92.32147 | 30303 ft | 390 kts | 269° |
| 2026-04-20 00:02 | 32.50438 | -92.41794 | 30314 ft | 391 kts | 270° |
| 2026-04-20 00:02 | 32.50217 | -92.48237 | 30308 ft | 392 kts | 270° |
| 2026-04-20 00:03 | 32.49993 | -92.54682 | 30319 ft | 392 kts | 270° |
| 2026-04-20 00:03 | 32.49764 | -92.61132 | 30313 ft | 392 kts | 270° |
| 2026-04-20 00:04 | 32.49531 | -92.67581 | 30302 ft | 392 kts | 270° |
| 2026-04-20 00:04 | 32.49294 | -92.74038 | 30318 ft | 392 kts | 270° |
| 2026-04-20 00:05 | 32.49054 | -92.80499 | 30310 ft | 393 kts | 270° |
| 2026-04-20 00:05 | 32.48811 | -92.86970 | 30309 ft | 393 kts | 270° |
| 2026-04-20 00:06 | 32.48565 | -92.93439 | 30313 ft | 393 kts | 270° |
| 2026-04-20 00:06 | 32.48330 | -92.99911 | 30316 ft | 393 kts | 270° |
| 2026-04-20 00:07 | 32.48099 | -93.06386 | 30295 ft | 394 kts | 270° |
| 2026-04-20 00:07 | 32.47865 | -93.12824 | 30308 ft | 394 kts | 270° |
| 2026-04-20 00:08 | 32.47625 | -93.19314 | 30313 ft | 395 kts | 270° |
| 2026-04-20 00:08 | 32.47380 | -93.25813 | 30322 ft | 395 kts | 270° |
| 2026-04-20 00:09 | 32.47132 | -93.32312 | 30317 ft | 395 kts | 270° |
| 2026-04-20 00:09 | 32.46881 | -93.38819 | 30321 ft | 395 kts | 270° |
| 2026-04-20 00:10 | 32.46626 | -93.45317 | 30310 ft | 395 kts | 270° |
| 2026-04-20 00:10 | 32.46412 | -93.50721 | 30301 ft | 395 kts | 270° |
| 2026-04-20 00:11 | 32.46151 | -93.57219 | 30306 ft | 395 kts | 270° |
| 2026-04-20 00:11 | 32.45887 | -93.63715 | 30312 ft | 395 kts | 269° |
| 2026-04-20 00:12 | 32.45620 | -93.70216 | 30300 ft | 395 kts | 269° |
| 2026-04-20 00:12 | 32.45349 | -93.76712 | 30293 ft | 395 kts | 269° |
| 2026-04-20 00:13 | 32.45075 | -93.83205 | 30282 ft | 395 kts | 269° |
| 2026-04-20 00:13 | 32.44798 | -93.89705 | 30301 ft | 396 kts | 269° |
| 2026-04-20 00:14 | 32.44517 | -93.96212 | 30293 ft | 396 kts | 269° |
| 2026-04-20 00:14 | 32.44232 | -94.02726 | 30302 ft | 396 kts | 269° |
| 2026-04-20 00:15 | 32.43943 | -94.09238 | 30305 ft | 396 kts | 269° |
| 2026-04-20 00:15 | 32.43652 | -94.15750 | 30292 ft | 396 kts | 269° |
| 2026-04-20 00:16 | 32.43357 | -94.22264 | 30296 ft | 396 kts | 269° |
| 2026-04-20 00:16 | 32.43058 | -94.28788 | 30294 ft | 397 kts | 269° |
| 2026-04-20 00:17 | 32.42758 | -94.35273 | 30291 ft | 398 kts | 269° |
| 2026-04-20 00:17 | 32.42452 | -94.41808 | 30301 ft | 398 kts | 269° |
| 2026-04-20 00:18 | 32.42142 | -94.48345 | 30296 ft | 398 kts | 269° |
| 2026-04-20 00:18 | 32.41829 | -94.54886 | 30299 ft | 398 kts | 269° |
| 2026-04-20 00:19 | 32.41513 | -94.61426 | 30291 ft | 398 kts | 269° |
| 2026-04-20 00:19 | 32.41192 | -94.67979 | 30299 ft | 399 kts | 269° |
| 2026-04-20 00:20 | 32.40868 | -94.74541 | 30294 ft | 400 kts | 269° |
| 2026-04-20 00:20 | 32.40540 | -94.81109 | 30298 ft | 400 kts | 269° |
| 2026-04-20 00:21 | 32.40208 | -94.87678 | 30292 ft | 400 kts | 269° |
| 2026-04-20 00:21 | 32.39874 | -94.94263 | 29695 ft | 406 kts | 269° |
| 2026-04-20 00:21 | 32.39703 | -94.97604 | 28950 ft | 403 kts | 269° |
| 2026-04-20 00:22 | 32.39543 | -95.00875 | 28030 ft | 401 kts | 270° |
| 2026-04-20 00:22 | 32.39467 | -95.04179 | 27091 ft | 402 kts | 271° |
| 2026-04-20 00:22 | 32.39469 | -95.07511 | 26067 ft | 406 kts | 272° |
| 2026-04-20 00:22 | 32.39546 | -95.10831 | 25374 ft | 402 kts | 274° |
| 2026-04-20 00:23 | 32.39649 | -95.14095 | 25157 ft | 388 kts | 274° |
| 2026-04-20 00:23 | 32.39731 | -95.17244 | 24885 ft | 377 kts | 273° |
| 2026-04-20 00:23 | 32.39782 | -95.20286 | 24741 ft | 363 kts | 273° |
| 2026-04-20 00:23 | 32.39814 | -95.23236 | 24612 ft | 358 kts | 273° |
| 2026-04-20 00:24 | 32.39839 | -95.26199 | 24455 ft | 360 kts | 273° |
| 2026-04-20 00:24 | 32.39860 | -95.29115 | 24277 ft | 349 kts | 273° |
| 2026-04-20 00:24 | 32.39891 | -95.31979 | 23857 ft | 347 kts | 273° |
| 2026-04-20 00:24 | 32.39931 | -95.34818 | 23435 ft | 344 kts | 273° |
| 2026-04-20 00:25 | 32.39973 | -95.37637 | 23028 ft | 342 kts | 273° |
| 2026-04-20 00:25 | 32.40016 | -95.40469 | 22641 ft | 346 kts | 273° |
| 2026-04-20 00:25 | 32.40057 | -95.43336 | 22245 ft | 350 kts | 273° |
| 2026-04-20 00:25 | 32.40096 | -95.46204 | 21849 ft | 348 kts | 273° |
| 2026-04-20 00:26 | 32.40133 | -95.49058 | 21467 ft | 346 kts | 273° |
| 2026-04-20 00:26 | 32.40169 | -95.51892 | 21078 ft | 345 kts | 273° |
| 2026-04-20 00:26 | 32.40204 | -95.54727 | 20697 ft | 343 kts | 273° |
| 2026-04-20 00:26 | 32.40239 | -95.57549 | 20316 ft | 343 kts | 273° |
| 2026-04-20 00:27 | 32.40274 | -95.60369 | 19928 ft | 343 kts | 273° |
| 2026-04-20 00:27 | 32.40307 | -95.63183 | 19560 ft | 342 kts | 273° |
| 2026-04-20 00:27 | 32.40340 | -95.66002 | 19174 ft | 342 kts | 273° |
| 2026-04-20 00:27 | 32.40374 | -95.68816 | 18795 ft | 342 kts | 273° |
| 2026-04-20 00:28 | 32.40465 | -95.71632 | 18348 ft | 343 kts | 275° |
| 2026-04-20 00:28 | 32.40618 | -95.74441 | 17946 ft | 341 kts | 276° |
| 2026-04-20 00:28 | 32.40787 | -95.77202 | 17551 ft | 340 kts | 276° |
| 2026-04-20 00:28 | 32.40958 | -95.79991 | 17161 ft | 340 kts | 276° |
| 2026-04-20 00:29 | 32.41122 | -95.82773 | 16783 ft | 339 kts | 275° |
| 2026-04-20 00:29 | 32.41280 | -95.85556 | 16262 ft | 341 kts | 275° |
| 2026-04-20 00:29 | 32.41436 | -95.88386 | 15754 ft | 344 kts | 275° |
| 2026-04-20 00:29 | 32.41585 | -95.91182 | 15336 ft | 340 kts | 275° |
| 2026-04-20 00:30 | 32.41732 | -95.93968 | 14977 ft | 336 kts | 275° |
| 2026-04-20 00:30 | 32.41875 | -95.96709 | 14593 ft | 333 kts | 275° |
| 2026-04-20 00:30 | 32.42016 | -95.99432 | 14228 ft | 330 kts | 275° |
| 2026-04-20 00:30 | 32.42155 | -96.02132 | 13829 ft | 328 kts | 274° |
| 2026-04-20 00:31 | 32.42294 | -96.04824 | 13429 ft | 327 kts | 274° |
| 2026-04-20 00:31 | 32.42431 | -96.07500 | 13051 ft | 325 kts | 274° |
| 2026-04-20 00:31 | 32.42567 | -96.10160 | 12679 ft | 324 kts | 274° |
| 2026-04-20 00:31 | 32.42702 | -96.12815 | 12314 ft | 323 kts | 274° |
| 2026-04-20 00:32 | 32.42835 | -96.15457 | 11951 ft | 320 kts | 274° |
| 2026-04-20 00:32 | 32.42967 | -96.18076 | 11589 ft | 317 kts | 274° |
| 2026-04-20 00:32 | 32.43095 | -96.20642 | 11219 ft | 307 kts | 274° |
| 2026-04-20 00:32 | 32.43219 | -96.23124 | 10890 ft | 297 kts | 274° |
| 2026-04-20 00:33 | 32.43339 | -96.25525 | 10558 ft | 288 kts | 273° |
| 2026-04-20 00:33 | 32.43455 | -96.27870 | 10245 ft | 283 kts | 273° |
| 2026-04-20 00:33 | 32.43570 | -96.30194 | 9915 ft | 282 kts | 273° |
| 2026-04-20 00:33 | 32.43685 | -96.32511 | 9577 ft | 283 kts | 272° |
| 2026-04-20 00:34 | 32.43810 | -96.34853 | 9254 ft | 287 kts | 275° |
| 2026-04-20 00:34 | 32.44452 | -96.37087 | 8924 ft | 290 kts | 307° |
| 2026-04-20 00:34 | 32.45897 | -96.38715 | 8900 ft | 289 kts | 323° |
| 2026-04-20 00:34 | 32.47566 | -96.40040 | 8672 ft | 295 kts | 327° |
| 2026-04-20 00:35 | 32.49327 | -96.41342 | 8530 ft | 295 kts | 327° |
| 2026-04-20 00:35 | 32.51037 | -96.42627 | 8377 ft | 295 kts | 327° |
| 2026-04-20 00:35 | 32.52759 | -96.43952 | 8230 ft | 295 kts | 326° |
| 2026-04-20 00:35 | 32.54493 | -96.45303 | 8074 ft | 294 kts | 326° |
| 2026-04-20 00:36 | 32.56174 | -96.46618 | 7924 ft | 293 kts | 326° |
| 2026-04-20 00:36 | 32.57877 | -96.47939 | 7771 ft | 292 kts | 326° |
| 2026-04-20 00:36 | 32.59586 | -96.49238 | 7627 ft | 292 kts | 327° |
| 2026-04-20 00:36 | 32.61299 | -96.50533 | 7478 ft | 292 kts | 327° |
| 2026-04-20 00:37 | 32.63012 | -96.51829 | 7334 ft | 292 kts | 327° |
| 2026-04-20 00:37 | 32.64726 | -96.53129 | 7175 ft | 293 kts | 326° |
| 2026-04-20 00:37 | 32.66442 | -96.54431 | 7042 ft | 293 kts | 326° |
| 2026-04-20 00:37 | 32.68163 | -96.55738 | 6884 ft | 294 kts | 326° |
| 2026-04-20 00:38 | 32.69884 | -96.57047 | 6721 ft | 294 kts | 326° |
| 2026-04-20 00:38 | 32.71608 | -96.58359 | 6569 ft | 294 kts | 326° |
| 2026-04-20 00:38 | 32.73326 | -96.59667 | 6406 ft | 290 kts | 326° |
| 2026-04-20 00:38 | 32.74919 | -96.61101 | 6223 ft | 286 kts | 317° |
| 2026-04-20 00:39 | 32.76362 | -96.62713 | 6132 ft | 285 kts | 315° |
| 2026-04-20 00:39 | 32.77812 | -96.64341 | 5964 ft | 288 kts | 316° |
| 2026-04-20 00:39 | 32.79290 | -96.65954 | 5813 ft | 289 kts | 317° |
| 2026-04-20 00:39 | 32.80779 | -96.67558 | 5675 ft | 289 kts | 317° |
| 2026-04-20 00:40 | 32.82261 | -96.69167 | 5524 ft | 289 kts | 317° |
| 2026-04-20 00:40 | 32.83737 | -96.70789 | 5377 ft | 289 kts | 317° |
| 2026-04-20 00:40 | 32.85210 | -96.72406 | 5227 ft | 288 kts | 317° |
| 2026-04-20 00:40 | 32.86684 | -96.74016 | 5088 ft | 287 kts | 317° |
| 2026-04-20 00:41 | 32.88161 | -96.75616 | 4932 ft | 287 kts | 317° |
| 2026-04-20 00:41 | 32.89634 | -96.77209 | 4790 ft | 285 kts | 318° |
| 2026-04-20 00:41 | 32.91082 | -96.78765 | 4621 ft | 275 kts | 318° |
| 2026-04-20 00:41 | 32.92472 | -96.80271 | 4373 ft | 265 kts | 317° |
| 2026-04-20 00:42 | 32.93805 | -96.81726 | 4152 ft | 255 kts | 317° |
| 2026-04-20 00:42 | 32.95091 | -96.83130 | 3926 ft | 246 kts | 317° |
| 2026-04-20 00:42 | 32.96339 | -96.84485 | 3710 ft | 240 kts | 318° |
| 2026-04-20 00:42 | 32.97572 | -96.85812 | 3490 ft | 238 kts | 317° |
| 2026-04-20 00:43 | 32.98759 | -96.87162 | 3292 ft | 240 kts | 315° |
| 2026-04-20 00:43 | 32.99982 | -96.88560 | 3067 ft | 241 kts | 316° |
| 2026-04-20 00:43 | 33.01183 | -96.89896 | 2868 ft | 239 kts | 317° |
| 2026-04-20 00:43 | 33.02413 | -96.91234 | 2647 ft | 239 kts | 317° |
| 2026-04-20 00:44 | 33.03628 | -96.92568 | 2531 ft | 237 kts | 317° |
| 2026-04-20 00:44 | 33.04842 | -96.93907 | 2517 ft | 239 kts | 317° |
| 2026-04-20 00:44 | 33.06047 | -96.95242 | 2492 ft | 233 kts | 317° |
| 2026-04-20 00:44 | 33.07221 | -96.96542 | 2496 ft | 228 kts | 317° |
| 2026-04-20 00:45 | 33.08368 | -96.97831 | 2486 ft | 226 kts | 310° |
| 2026-04-20 00:45 | 33.08945 | -96.99478 | 2469 ft | 213 kts | 266° |
| 2026-04-20 00:45 | 33.08435 | -97.01031 | 2494 ft | 202 kts | 220° |
| 2026-04-20 00:45 | 33.07193 | -97.01676 | 2519 ft | 198 kts | 182° |
| 2026-04-20 00:46 | 33.05796 | -97.01729 | 2523 ft | 203 kts | 178° |
| 2026-04-20 00:46 | 33.04375 | -97.01684 | 2489 ft | 204 kts | 174° |
| 2026-04-20 00:46 | 33.02966 | -97.01502 | 2399 ft | 205 kts | 168° |
| 2026-04-20 00:46 | 33.01598 | -97.01092 | 2251 ft | 201 kts | 160° |
| 2026-04-20 00:47 | 33.00315 | -97.00475 | 2106 ft | 197 kts | 154° |
| 2026-04-20 00:47 | 32.99113 | -96.99712 | 1979 ft | 197 kts | 149° |
| 2026-04-20 00:47 | 32.97934 | -96.98835 | 1912 ft | 200 kts | 147° |
| 2026-04-20 00:47 | 32.96786 | -96.97923 | 1885 ft | 196 kts | 143° |
| 2026-04-20 00:48 | 32.95741 | -96.96950 | 1875 ft | 183 kts | 141° |
| 2026-04-20 00:48 | 32.94764 | -96.96040 | 1877 ft | 175 kts | 141° |
| 2026-04-20 00:48 | 32.93834 | -96.95089 | 1907 ft | 178 kts | 136° |
| 2026-04-20 00:48 | 32.92937 | -96.94070 | 1891 ft | 179 kts | 135° |
| 2026-04-20 00:49 | 32.92059 | -96.93049 | 1917 ft | 177 kts | 135° |
| 2026-04-20 00:49 | 32.91174 | -96.92018 | 1909 ft | 177 kts | 135° |
| 2026-04-20 00:49 | 32.90301 | -96.91003 | 1783 ft | 180 kts | 135° |
| 2026-04-20 00:49 | 32.89390 | -96.89942 | 1561 ft | 178 kts | 135° |
| 2026-04-20 00:50 | 32.88554 | -96.88971 | 1313 ft | 162 kts | 134° |
| 2026-04-20 00:50 | 32.87786 | -96.88077 | 1098 ft | 150 kts | 134° |
| 2026-04-20 00:50 | 32.87059 | -96.87231 | 918 ft | 144 kts | 134° |
| 2026-04-20 00:50 | 32.86338 | -96.86391 | 745 ft | 144 kts | 134° |
| 2026-04-20 00:51 | 32.85617 | -96.85554 | 529 ft | 143 kts | 135° |
| 2026-04-20 00:51 | 32.84973 | -96.84805 | 487 ft | 97 kts | 136° |
| 2026-04-20 00:51 | 32.84751 | -96.84610 | 483 ft | 18 kts | 202° |
| 2026-04-20 00:51 | 32.84732 | -96.84624 | 483 ft | 0 kts | 214° |
| 2026-04-20 00:52 | 32.84731 | -96.84625 | 483 ft | 1 kts | 214° |
| 2026-04-20 00:52 | 32.84680 | -96.84634 | 484 ft | 14 kts | 158° |
| 2026-04-20 00:52 | 32.84592 | -96.84611 | 478 ft | 15 kts | 221° |
| 2026-04-20 00:53 | 32.84518 | -96.84704 | 481 ft | 16 kts | 241° |
| 2026-04-20 00:53 | 32.84537 | -96.84789 | 481 ft | 10 kts | 351° |
| 2026-04-20 00:53 | 32.84553 | -96.84786 | 475 ft | 2 kts | 14° |
| 2026-04-20 00:53 | 32.84564 | -96.84785 | 479 ft | 0 kts | 2° |